sensor_id;sensor_type;location;lat;lon;timestamp;temperature;humidity
14154;DHT22;7157;53.144;7.570;2023-02-13T00:01:24;8.88;92.08
14154;DHT22;7157;53.144;7.570;2023-02-13T00:11:27;8.81;92.12
14154;DHT22;7157;53.144;7.570;2023-02-13T00:21:31;8.74;92.53
14154;DHT22;7157;53.144;7.570;2023-02-13T00:31:34;8.75;92.57
14154;DHT22;7157;53.144;7.570;2023-02-13T00:41:38;8.78;92.71
14154;DHT22;7157;53.144;7.570;2023-02-13T00:51:41;8.71;92.77
14154;DHT22;7157;53.144;7.570;2023-02-13T01:01:45;8.75;92.88
14154;DHT22;7157;53.144;7.570;2023-02-13T01:11:47;8.72;93.06
14154;DHT22;7157;53.144;7.570;2023-02-13T01:21:51;8.66;93.27
14154;DHT22;7157;53.144;7.570;2023-02-13T01:31:54;8.55;93.87
14154;DHT22;7157;53.144;7.570;2023-02-13T01:41:58;8.61;93.60
14154;DHT22;7157;53.144;7.570;2023-02-13T01:52:01;8.58;94.04
14154;DHT22;7157;53.144;7.570;2023-02-13T02:02:05;8.63;93.93
14154;DHT22;7157;53.144;7.570;2023-02-13T02:12:10;8.55;94.28
14154;DHT22;7157;53.144;7.570;2023-02-13T02:33:17;8.49;94.40
14154;DHT22;7157;53.144;7.570;2023-02-13T02:43:31;8.48;94.27
14154;DHT22;7157;53.144;7.570;2023-02-13T02:53:39;8.45;94.53
14154;DHT22;7157;53.144;7.570;2023-02-13T03:03:44;8.48;94.45
14154;DHT22;7157;53.144;7.570;2023-02-13T03:14:19;8.47;94.34
14154;DHT22;7157;53.144;7.570;2023-02-13T03:24:27;8.47;94.23
14154;DHT22;7157;53.144;7.570;2023-02-13T03:34:34;8.45;94.37
14154;DHT22;7157;53.144;7.570;2023-02-13T03:44:55;8.41;94.40
14154;DHT22;7157;53.144;7.570;2023-02-13T03:55:15;8.42;94.33
14154;DHT22;7157;53.144;7.570;2023-02-13T04:05:38;8.35;94.61
14154;DHT22;7157;53.144;7.570;2023-02-13T04:15:47;8.34;94.69
14154;DHT22;7157;53.144;7.570;2023-02-13T04:25:53;8.34;94.62
14154;DHT22;7157;53.144;7.570;2023-02-13T04:35:58;8.17;95.36
14154;DHT22;7157;53.144;7.570;2023-02-13T04:46:01;8.23;94.97
14154;DHT22;7157;53.144;7.570;2023-02-13T04:56:05;8.28;94.99
14154;DHT22;7157;53.144;7.570;2023-02-13T05:06:08;8.28;94.99
14154;DHT22;7157;53.144;7.570;2023-02-13T05:16:15;8.24;95.19
14154;DHT22;7157;53.144;7.570;2023-02-13T05:26:17;8.21;95.26
14154;DHT22;7157;53.144;7.570;2023-02-13T05:36:21;8.15;95.46
14154;DHT22;7157;53.144;7.570;2023-02-13T05:46:24;8.04;96.02
14154;DHT22;7157;53.144;7.570;2023-02-13T05:56:28;8.16;95.44
14154;DHT22;7157;53.144;7.570;2023-02-13T06:06:31;8.02;95.55
14154;DHT22;7157;53.144;7.570;2023-02-13T06:16:35;8.08;95.95
14154;DHT22;7157;53.144;7.570;2023-02-13T06:26:38;8.13;95.84
14154;DHT22;7157;53.144;7.570;2023-02-13T06:36:42;8.14;95.57
14154;DHT22;7157;53.144;7.570;2023-02-13T06:46:44;8.07;95.65
14154;DHT22;7157;53.144;7.570;2023-02-13T06:56:48;7.94;96.17
14154;DHT22;7157;53.144;7.570;2023-02-13T07:06:53;7.94;96.17
14154;DHT22;7157;53.144;7.570;2023-02-13T07:16:57;8.02;95.95
14154;DHT22;7157;53.144;7.570;2023-02-13T07:27:00;7.92;96.26
14154;DHT22;7157;53.144;7.570;2023-02-13T07:37:04;7.93;96.62
14154;DHT22;7157;53.144;7.570;2023-02-13T07:47:07;8.03;96.19
14154;DHT22;7157;53.144;7.570;2023-02-13T07:57:11;8.01;96.36
14154;DHT22;7157;53.144;7.570;2023-02-13T08:07:15;8.14;96.16
14154;DHT22;7157;53.144;7.570;2023-02-13T08:17:19;8.19;96.21
14154;DHT22;7157;53.144;7.570;2023-02-13T08:27:22;8.24;96.22
14154;DHT22;7157;53.144;7.570;2023-02-13T08:37:26;8.38;96.08
14154;DHT22;7157;53.144;7.570;2023-02-13T08:47:29;8.41;95.90
14154;DHT22;7157;53.144;7.570;2023-02-13T08:57:32;8.48;94.88
14154;DHT22;7157;53.144;7.570;2023-02-13T09:07:35;8.55;93.98
14154;DHT22;7157;53.144;7.570;2023-02-13T09:17:39;8.62;93.87
14154;DHT22;7157;53.144;7.570;2023-02-13T09:27:42;8.81;93.24
14154;DHT22;7157;53.144;7.570;2023-02-13T09:37:46;9.02;92.46
14154;DHT22;7157;53.144;7.570;2023-02-13T09:47:49;9.11;91.61
14154;DHT22;7157;53.144;7.570;2023-02-13T09:57:56;9.37;90.71
14154;DHT22;7157;53.144;7.570;2023-02-13T10:08:08;9.25;89.12
14154;DHT22;7157;53.144;7.570;2023-02-13T10:18:21;9.48;88.81
14154;DHT22;7157;53.144;7.570;2023-02-13T10:28:31;9.67;87.83
14154;DHT22;7157;53.144;7.570;2023-02-13T10:38:40;9.74;87.15
14154;DHT22;7157;53.144;7.570;2023-02-13T10:48:58;9.85;86.05
14154;DHT22;7157;53.144;7.570;2023-02-13T10:59:14;9.91;85.38
14154;DHT22;7157;53.144;7.570;2023-02-13T11:09:22;9.94;85.69
14154;DHT22;7157;53.144;7.570;2023-02-13T11:19:29;10.28;85.58
14154;DHT22;7157;53.144;7.570;2023-02-13T11:29:33;10.41;85.54
14154;DHT22;7157;53.144;7.570;2023-02-13T11:39:39;10.56;85.01
14154;DHT22;7157;53.144;7.570;2023-02-13T11:49:45;10.51;85.16
14154;DHT22;7157;53.144;7.570;2023-02-13T11:59:51;10.75;84.74
14154;DHT22;7157;53.144;7.570;2023-02-13T12:09:59;10.78;84.35
14154;DHT22;7157;53.144;7.570;2023-02-13T12:20:11;10.78;83.97
14154;DHT22;7157;53.144;7.570;2023-02-13T12:41:01;10.94;83.45
14154;DHT22;7157;53.144;7.570;2023-02-13T12:51:17;10.88;84.00
14154;DHT22;7157;53.144;7.570;2023-02-13T13:01:40;10.81;83.25
14154;DHT22;7157;53.144;7.570;2023-02-13T13:22:22;10.97;83.75
14154;DHT22;7157;53.144;7.570;2023-02-13T13:32:29;11.03;83.02
14154;DHT22;7157;53.144;7.570;2023-02-13T13:42:39;10.87;83.88
14154;DHT22;7157;53.144;7.570;2023-02-13T13:53:04;11.02;84.39
14154;DHT22;7157;53.144;7.570;2023-02-13T14:03:36;11.08;84.31
14154;DHT22;7157;53.144;7.570;2023-02-13T14:13:39;11.08;84.48
14154;DHT22;7157;53.144;7.570;2023-02-13T14:23:47;10.99;84.33
14154;DHT22;7157;53.144;7.570;2023-02-13T14:33:55;11.10;85.14
14154;DHT22;7157;53.144;7.570;2023-02-13T14:44:00;10.98;85.36
14154;DHT22;7157;53.144;7.570;2023-02-13T14:54:07;10.93;85.87
14154;DHT22;7157;53.144;7.570;2023-02-13T15:04:16;10.94;85.93
14154;DHT22;7157;53.144;7.570;2023-02-13T15:14:23;10.86;86.29
14154;DHT22;7157;53.144;7.570;2023-02-13T15:24:34;10.95;85.74
14154;DHT22;7157;53.144;7.570;2023-02-13T15:34:38;10.81;86.35
14154;DHT22;7157;53.144;7.570;2023-02-13T15:44:51;10.68;86.89
14154;DHT22;7157;53.144;7.570;2023-02-13T15:54:56;10.57;87.15
14154;DHT22;7157;53.144;7.570;2023-02-13T16:05:01;10.38;87.86
14154;DHT22;7157;53.144;7.570;2023-02-13T16:15:04;10.25;88.57
14154;DHT22;7157;53.144;7.570;2023-02-13T16:25:16;10.12;89.00
14154;DHT22;7157;53.144;7.570;2023-02-13T16:35:28;10.01;89.55
14154;DHT22;7157;53.144;7.570;2023-02-13T16:45:32;9.94;89.89
14154;DHT22;7157;53.144;7.570;2023-02-13T16:55:35;9.91;90.14
14154;DHT22;7157;53.144;7.570;2023-02-13T17:05:39;9.82;90.44
14154;DHT22;7157;53.144;7.570;2023-02-13T17:15:43;9.79;90.65
14154;DHT22;7157;53.144;7.570;2023-02-13T17:25:48;9.74;90.94
14154;DHT22;7157;53.144;7.570;2023-02-13T17:35:53;9.68;91.23
14154;DHT22;7157;53.144;7.570;2023-02-13T17:45:57;9.64;91.17
14154;DHT22;7157;53.144;7.570;2023-02-13T17:56:02;9.50;91.48
14154;DHT22;7157;53.144;7.570;2023-02-13T18:06:10;9.38;91.77
14154;DHT22;7157;53.144;7.570;2023-02-13T18:16:13;9.07;92.11
14154;DHT22;7157;53.144;7.570;2023-02-13T18:26:17;8.65;92.19
14154;DHT22;7157;53.144;7.570;2023-02-13T18:36:20;8.33;92.30
14154;DHT22;7157;53.144;7.570;2023-02-13T18:46:24;8.07;92.40
14154;DHT22;7157;53.144;7.570;2023-02-13T18:56:27;7.85;92.37
14154;DHT22;7157;53.144;7.570;2023-02-13T19:06:32;7.64;92.57
14154;DHT22;7157;53.144;7.570;2023-02-13T19:16:35;7.46;92.91
14154;DHT22;7157;53.144;7.570;2023-02-13T19:26:39;7.29;93.05
14154;DHT22;7157;53.144;7.570;2023-02-13T19:36:42;7.17;93.32
14154;DHT22;7157;53.144;7.570;2023-02-13T19:46:46;7.08;93.59
14154;DHT22;7157;53.144;7.570;2023-02-13T19:56:49;6.90;93.86
14154;DHT22;7157;53.144;7.570;2023-02-13T20:06:56;6.80;94.15
14154;DHT22;7157;53.144;7.570;2023-02-13T20:16:59;6.72;94.52
14154;DHT22;7157;53.144;7.570;2023-02-13T20:27:03;6.65;94.49
14154;DHT22;7157;53.144;7.570;2023-02-13T20:37:06;6.50;94.43
14154;DHT22;7157;53.144;7.570;2023-02-13T20:47:10;6.07;94.21
14154;DHT22;7157;53.144;7.570;2023-02-13T20:57:13;5.62;94.64
14154;DHT22;7157;53.144;7.570;2023-02-13T21:07:17;5.21;94.62
14154;DHT22;7157;53.144;7.570;2023-02-13T21:17:20;5.03;94.40
14154;DHT22;7157;53.144;7.570;2023-02-13T21:27:24;5.12;94.07
14154;DHT22;7157;53.144;7.570;2023-02-13T21:37:28;5.07;93.72
14154;DHT22;7157;53.144;7.570;2023-02-13T21:47:32;4.76;93.40
14154;DHT22;7157;53.144;7.570;2023-02-13T21:57:34;4.56;93.40
14154;DHT22;7157;53.144;7.570;2023-02-13T22:07:38;4.35;94.13
14154;DHT22;7157;53.144;7.570;2023-02-13T22:17:55;4.30;94.44
14154;DHT22;7157;53.144;7.570;2023-02-13T22:27:59;4.27;94.79
14154;DHT22;7157;53.144;7.570;2023-02-13T22:38:02;4.32;95.17
14154;DHT22;7157;53.144;7.570;2023-02-13T22:48:06;4.36;95.68
14154;DHT22;7157;53.144;7.570;2023-02-13T22:58:09;4.34;96.41
14154;DHT22;7157;53.144;7.570;2023-02-13T23:08:13;4.26;97.20
14154;DHT22;7157;53.144;7.570;2023-02-13T23:18:16;4.18;97.69
14154;DHT22;7157;53.144;7.570;2023-02-13T23:28:20;3.80;97.66
14154;DHT22;7157;53.144;7.570;2023-02-13T23:38:23;3.72;98.00
14154;DHT22;7157;53.144;7.570;2023-02-13T23:48:27;3.74;97.74
14154;DHT22;7157;53.144;7.570;2023-02-13T23:58:30;3.97;98.01
